« Back
NWS Peachtree City, Ga » Text Product » AHN Terminal Aerodrome Forecast


Printer-friendly Version
Current Version              Previous Versions:   1  2  3  4  5  6  7  8  9  

Terminal Aerodrome Forecast

286
FTAK31 PAJN 090521
TAFAHN
TAF
PAHN 090521Z 0906/1006 29005KT 1 1/2SM -SN SCT010 OVC015
     FM090700 15007G15KT 3SM -RASN BR BKN010 OVC030
     FM090800 08010G18KT 6SM -RA BR SCT002 BKN015 OVC030
     FM091700 30010KT P6SM VCSH SCT010 BKN025 OVC040
     FM100000 30012KT P6SM SCT025 OVC045
      AMD LTD TO CLD VIS AND WIND=

USA.gov is the U.S. government's official web portal to all federal, state and local government web resources and services.